sensor_id;sensor_type;location;lat;lon;timestamp;P1;durP1;ratioP1;P2;durP2;ratioP2
71963;SDS011;59834;52.124;5.422;2022-08-18T07:46:29;3.13;;;2.83;;
71963;SDS011;59834;52.124;5.422;2022-08-18T07:49:05;7.63;;;3.47;;
71963;SDS011;59834;52.124;5.422;2022-08-18T07:51:45;6.45;;;3.45;;
71963;SDS011;59834;52.124;5.422;2022-08-18T07:54:48;7.00;;;3.00;;
71963;SDS011;59834;52.124;5.422;2022-08-18T08:00:27;4.27;;;3.00;;
71963;SDS011;59834;52.124;5.422;2022-08-18T08:10:29;5.45;;;3.13;;
71963;SDS011;59834;52.124;5.422;2022-08-18T08:13:16;9.25;;;4.82;;
71963;SDS011;59834;52.124;5.422;2022-08-18T08:16:13;5.87;;;3.20;;
71963;SDS011;59834;52.124;5.422;2022-08-18T08:22:29;3.72;;;2.67;;
71963;SDS011;59834;52.124;5.422;2022-08-18T08:31:10;3.50;;;2.77;;
71963;SDS011;59834;52.124;5.422;2022-08-18T08:36:49;5.25;;;2.63;;
71963;SDS011;59834;52.124;5.422;2022-08-18T08:39:26;9.30;;;2.90;;
71963;SDS011;59834;52.124;5.422;2022-08-18T08:42:05;6.88;;;3.13;;
71963;SDS011;59834;52.124;5.422;2022-08-18T08:44:55;6.83;;;2.83;;
71963;SDS011;59834;52.124;5.422;2022-08-18T09:17:41;2.93;;;2.07;;
71963;SDS011;59834;52.124;5.422;2022-08-18T09:23:07;4.25;;;2.00;;
71963;SDS011;59834;52.124;5.422;2022-08-18T09:28:20;2.88;;;2.42;;
71963;SDS011;59834;52.124;5.422;2022-08-18T09:36:12;2.70;;;2.35;;
71963;SDS011;59834;52.124;5.422;2022-08-18T09:39:35;3.63;;;2.35;;
71963;SDS011;59834;52.124;5.422;2022-08-18T09:42:45;3.40;;;2.58;;
71963;SDS011;59834;52.124;5.422;2022-08-18T09:53:34;4.43;;;2.38;;
71963;SDS011;59834;52.124;5.422;2022-08-18T10:02:04;2.40;;;1.60;;
71963;SDS011;59834;52.124;5.422;2022-08-18T10:05:21;2.20;;;1.52;;
71963;SDS011;59834;52.124;5.422;2022-08-18T10:17:14;3.50;;;1.63;;
71963;SDS011;59834;52.124;5.422;2022-08-18T10:22:56;2.95;;;1.75;;
71963;SDS011;59834;52.124;5.422;2022-08-18T10:25:34;2.95;;;1.80;;
71963;SDS011;59834;52.124;5.422;2022-08-18T10:28:10;4.47;;;2.30;;
71963;SDS011;59834;52.124;5.422;2022-08-18T10:31:17;6.88;;;2.15;;
71963;SDS011;59834;52.124;5.422;2022-08-18T10:39:16;3.20;;;1.83;;
71963;SDS011;59834;52.124;5.422;2022-08-18T10:42:32;4.00;;;1.67;;
71963;SDS011;59834;52.124;5.422;2022-08-18T10:44:41;2.22;;;1.70;;
71963;SDS011;59834;52.124;5.422;2022-08-18T10:47:29;4.93;;;2.22;;
71963;SDS011;59834;52.124;5.422;2022-08-18T10:50:06;2.42;;;2.08;;
71963;SDS011;59834;52.124;5.422;2022-08-18T10:56:08;2.03;;;1.33;;
71963;SDS011;59834;52.124;5.422;2022-08-18T11:04:50;5.03;;;1.90;;
71963;SDS011;59834;52.124;5.422;2022-08-18T11:07:28;2.50;;;1.50;;
71963;SDS011;59834;52.124;5.422;2022-08-18T11:10:18;3.77;;;1.50;;
71963;SDS011;59834;52.124;5.422;2022-08-18T11:16:05;1.75;;;1.60;;
71963;SDS011;59834;52.124;5.422;2022-08-18T11:18:47;2.90;;;1.30;;
71963;SDS011;59834;52.124;5.422;2022-08-18T11:21:33;4.07;;;1.58;;
71963;SDS011;59834;52.124;5.422;2022-08-18T11:24:15;1.73;;;0.90;;
71963;SDS011;59834;52.124;5.422;2022-08-18T11:26:47;2.47;;;1.40;;
71963;SDS011;59834;52.124;5.422;2022-08-18T11:29:26;2.55;;;1.17;;
71963;SDS011;59834;52.124;5.422;2022-08-18T11:35:02;1.95;;;1.65;;
71963;SDS011;59834;52.124;5.422;2022-08-18T11:46:12;3.20;;;1.10;;
71963;SDS011;59834;52.124;5.422;2022-08-18T11:48:56;1.92;;;1.38;;
71963;SDS011;59834;52.124;5.422;2022-08-18T11:51:29;3.30;;;1.40;;
71963;SDS011;59834;52.124;5.422;2022-08-18T11:53:59;3.55;;;1.38;;
71963;SDS011;59834;52.124;5.422;2022-08-18T11:56:29;2.22;;;1.88;;
71963;SDS011;59834;52.124;5.422;2022-08-18T12:02:15;1.85;;;1.45;;
71963;SDS011;59834;52.124;5.422;2022-08-18T12:04:47;7.20;;;1.27;;
71963;SDS011;59834;52.124;5.422;2022-08-18T12:07:39;2.13;;;1.30;;
71963;SDS011;59834;52.124;5.422;2022-08-18T12:10:24;1.52;;;1.35;;
71963;SDS011;59834;52.124;5.422;2022-08-18T12:12:55;2.65;;;1.20;;
71963;SDS011;59834;52.124;5.422;2022-08-18T12:15:30;2.83;;;1.45;;
71963;SDS011;59834;52.124;5.422;2022-08-18T12:18:15;3.33;;;1.37;;
71963;SDS011;59834;52.124;5.422;2022-08-18T12:20:56;1.88;;;1.20;;
71963;SDS011;59834;52.124;5.422;2022-08-18T12:23:24;1.77;;;1.30;;
71963;SDS011;59834;52.124;5.422;2022-08-18T12:25:50;2.90;;;1.20;;
71963;SDS011;59834;52.124;5.422;2022-08-18T12:28:17;3.70;;;1.40;;
71963;SDS011;59834;52.124;5.422;2022-08-18T12:30:47;4.37;;;1.30;;
71963;SDS011;59834;52.124;5.422;2022-08-18T12:33:22;3.10;;;1.15;;
71963;SDS011;59834;52.124;5.422;2022-08-18T12:35:59;2.58;;;1.05;;
71963;SDS011;59834;52.124;5.422;2022-08-18T12:38:30;2.03;;;1.08;;
71963;SDS011;59834;52.124;5.422;2022-08-18T12:41:02;3.08;;;1.30;;
71963;SDS011;59834;52.124;5.422;2022-08-18T12:43:30;3.87;;;1.07;;
71963;SDS011;59834;52.124;5.422;2022-08-18T12:45:59;1.90;;;1.02;;
71963;SDS011;59834;52.124;5.422;2022-08-18T12:48:45;4.78;;;1.40;;
71963;SDS011;59834;52.124;5.422;2022-08-18T12:51:16;1.88;;;1.10;;
71963;SDS011;59834;52.124;5.422;2022-08-18T12:53:49;1.98;;;1.10;;
71963;SDS011;59834;52.124;5.422;2022-08-18T12:56:36;2.23;;;1.20;;
71963;SDS011;59834;52.124;5.422;2022-08-18T12:59:04;2.17;;;0.80;;
71963;SDS011;59834;52.124;5.422;2022-08-18T13:01:34;2.42;;;1.35;;
71963;SDS011;59834;52.124;5.422;2022-08-18T13:04:05;4.05;;;1.23;;
71963;SDS011;59834;52.124;5.422;2022-08-18T13:06:40;2.78;;;1.20;;
71963;SDS011;59834;52.124;5.422;2022-08-18T13:09:28;2.83;;;0.87;;
71963;SDS011;59834;52.124;5.422;2022-08-18T13:12:16;3.83;;;1.00;;
71963;SDS011;59834;52.124;5.422;2022-08-18T13:14:44;3.83;;;0.95;;
71963;SDS011;59834;52.124;5.422;2022-08-18T13:17:12;1.77;;;1.00;;
71963;SDS011;59834;52.124;5.422;2022-08-18T13:20:03;1.13;;;0.80;;
71963;SDS011;59834;52.124;5.422;2022-08-18T13:22:35;1.63;;;0.73;;
71963;SDS011;59834;52.124;5.422;2022-08-18T13:25:06;3.53;;;0.85;;
71963;SDS011;59834;52.124;5.422;2022-08-18T13:27:35;1.70;;;0.80;;
71963;SDS011;59834;52.124;5.422;2022-08-18T13:30:10;1.45;;;0.80;;
71963;SDS011;59834;52.124;5.422;2022-08-18T13:32:55;3.33;;;0.82;;
71963;SDS011;59834;52.124;5.422;2022-08-18T13:35:25;1.90;;;0.80;;
71963;SDS011;59834;52.124;5.422;2022-08-18T13:37:55;2.80;;;1.30;;
71963;SDS011;59834;52.124;5.422;2022-08-18T13:40:22;2.25;;;1.08;;
71963;SDS011;59834;52.124;5.422;2022-08-18T13:42:54;1.77;;;1.05;;
71963;SDS011;59834;52.124;5.422;2022-08-18T13:45:23;4.07;;;1.60;;
71963;SDS011;59834;52.124;5.422;2022-08-18T13:47:51;3.60;;;1.40;;
71963;SDS011;59834;52.124;5.422;2022-08-18T13:50:20;3.72;;;1.45;;
71963;SDS011;59834;52.124;5.422;2022-08-18T13:52:56;2.40;;;0.98;;
71963;SDS011;59834;52.124;5.422;2022-08-18T13:55:26;4.13;;;0.85;;
71963;SDS011;59834;52.124;5.422;2022-08-18T13:57:54;3.50;;;0.98;;
71963;SDS011;59834;52.124;5.422;2022-08-18T14:00:21;1.93;;;0.90;;
71963;SDS011;59834;52.124;5.422;2022-08-18T14:02:56;4.80;;;0.77;;
71963;SDS011;59834;52.124;5.422;2022-08-18T14:05:24;1.90;;;1.02;;
71963;SDS011;59834;52.124;5.422;2022-08-18T14:08:10;2.25;;;1.02;;
71963;SDS011;59834;52.124;5.422;2022-08-18T14:10:46;1.90;;;0.88;;
71963;SDS011;59834;52.124;5.422;2022-08-18T14:13:17;2.90;;;1.27;;
71963;SDS011;59834;52.124;5.422;2022-08-18T14:15:50;1.10;;;0.75;;
71963;SDS011;59834;52.124;5.422;2022-08-18T14:18:21;2.20;;;0.90;;
71963;SDS011;59834;52.124;5.422;2022-08-18T14:20:57;1.70;;;1.02;;
71963;SDS011;59834;52.124;5.422;2022-08-18T14:23:48;2.72;;;1.05;;
71963;SDS011;59834;52.124;5.422;2022-08-18T14:26:39;2.37;;;0.90;;
71963;SDS011;59834;52.124;5.422;2022-08-18T14:29:21;2.47;;;1.30;;
71963;SDS011;59834;52.124;5.422;2022-08-18T14:32:09;3.95;;;1.10;;
71963;SDS011;59834;52.124;5.422;2022-08-18T14:34:47;3.95;;;0.80;;
71963;SDS011;59834;52.124;5.422;2022-08-18T14:37:18;1.40;;;0.73;;
71963;SDS011;59834;52.124;5.422;2022-08-18T14:39:46;1.83;;;0.90;;
71963;SDS011;59834;52.124;5.422;2022-08-18T14:42:15;2.47;;;1.10;;
71963;SDS011;59834;52.124;5.422;2022-08-18T14:44:46;1.85;;;1.23;;
71963;SDS011;59834;52.124;5.422;2022-08-18T14:47:14;4.00;;;1.45;;
71963;SDS011;59834;52.124;5.422;2022-08-18T14:49:49;3.30;;;1.17;;
71963;SDS011;59834;52.124;5.422;2022-08-18T14:52:20;4.43;;;1.63;;
71963;SDS011;59834;52.124;5.422;2022-08-18T14:54:49;3.75;;;1.00;;
71963;SDS011;59834;52.124;5.422;2022-08-18T14:57:16;1.92;;;1.20;;
71963;SDS011;59834;52.124;5.422;2022-08-18T14:59:44;2.45;;;1.27;;
71963;SDS011;59834;52.124;5.422;2022-08-18T15:02:11;2.70;;;1.35;;
71963;SDS011;59834;52.124;5.422;2022-08-18T15:04:38;5.17;;;2.00;;
71963;SDS011;59834;52.124;5.422;2022-08-18T15:07:21;4.22;;;1.45;;
71963;SDS011;59834;52.124;5.422;2022-08-18T15:09:49;4.53;;;1.60;;
71963;SDS011;59834;52.124;5.422;2022-08-18T15:12:36;3.97;;;1.08;;
71963;SDS011;59834;52.124;5.422;2022-08-18T15:15:04;2.33;;;1.10;;
71963;SDS011;59834;52.124;5.422;2022-08-18T15:17:33;2.58;;;1.40;;
71963;SDS011;59834;52.124;5.422;2022-08-18T15:20:06;2.67;;;1.55;;
71963;SDS011;59834;52.124;5.422;2022-08-18T15:22:41;2.53;;;1.20;;
71963;SDS011;59834;52.124;5.422;2022-08-18T15:25:29;3.67;;;1.50;;
71963;SDS011;59834;52.124;5.422;2022-08-18T15:28:20;2.15;;;1.23;;
71963;SDS011;59834;52.124;5.422;2022-08-18T15:30:50;3.80;;;1.30;;
71963;SDS011;59834;52.124;5.422;2022-08-18T15:33:37;2.55;;;1.20;;
71963;SDS011;59834;52.124;5.422;2022-08-18T15:36:04;3.53;;;1.17;;
71963;SDS011;59834;52.124;5.422;2022-08-18T15:38:35;1.77;;;0.93;;
71963;SDS011;59834;52.124;5.422;2022-08-18T15:41:03;1.88;;;1.17;;
71963;SDS011;59834;52.124;5.422;2022-08-18T15:43:34;2.75;;;1.40;;
71963;SDS011;59834;52.124;5.422;2022-08-18T15:46:13;4.18;;;1.33;;
71963;SDS011;59834;52.124;5.422;2022-08-18T15:48:42;2.33;;;1.30;;
71963;SDS011;59834;52.124;5.422;2022-08-18T15:51:09;1.73;;;0.90;;
71963;SDS011;59834;52.124;5.422;2022-08-18T15:53:37;2.17;;;1.17;;
71963;SDS011;59834;52.124;5.422;2022-08-18T15:56:14;4.22;;;1.10;;
71963;SDS011;59834;52.124;5.422;2022-08-18T15:58:46;2.20;;;0.98;;
71963;SDS011;59834;52.124;5.422;2022-08-18T16:01:14;4.90;;;0.98;;
71963;SDS011;59834;52.124;5.422;2022-08-18T16:03:57;2.77;;;1.00;;
71963;SDS011;59834;52.124;5.422;2022-08-18T16:06:27;2.20;;;0.90;;
71963;SDS011;59834;52.124;5.422;2022-08-18T16:08:58;4.07;;;1.10;;
71963;SDS011;59834;52.124;5.422;2022-08-18T16:11:31;1.45;;;0.73;;
71963;SDS011;59834;52.124;5.422;2022-08-18T16:13:59;1.80;;;1.00;;
71963;SDS011;59834;52.124;5.422;2022-08-18T16:16:26;1.10;;;0.60;;
71963;SDS011;59834;52.124;5.422;2022-08-18T16:19:02;2.13;;;0.90;;
71963;SDS011;59834;52.124;5.422;2022-08-18T16:21:29;2.67;;;0.95;;
71963;SDS011;59834;52.124;5.422;2022-08-18T16:23:56;2.15;;;1.00;;
71963;SDS011;59834;52.124;5.422;2022-08-18T16:26:27;4.13;;;1.45;;
71963;SDS011;59834;52.124;5.422;2022-08-18T16:28:54;3.63;;;0.80;;
71963;SDS011;59834;52.124;5.422;2022-08-18T16:31:23;1.90;;;0.90;;
71963;SDS011;59834;52.124;5.422;2022-08-18T16:33:51;2.03;;;0.90;;
71963;SDS011;59834;52.124;5.422;2022-08-18T16:36:20;1.65;;;0.63;;
71963;SDS011;59834;52.124;5.422;2022-08-18T16:38:50;1.50;;;0.68;;
71963;SDS011;59834;52.124;5.422;2022-08-18T16:41:18;6.53;;;0.90;;
71963;SDS011;59834;52.124;5.422;2022-08-18T16:43:45;2.42;;;0.85;;
71963;SDS011;59834;52.124;5.422;2022-08-18T16:46:14;2.15;;;1.10;;
71963;SDS011;59834;52.124;5.422;2022-08-18T16:48:44;3.42;;;1.10;;
71963;SDS011;59834;52.124;5.422;2022-08-18T16:51:12;2.22;;;0.80;;
71963;SDS011;59834;52.124;5.422;2022-08-18T16:53:40;2.73;;;1.47;;
71963;SDS011;59834;52.124;5.422;2022-08-18T16:56:11;1.67;;;0.70;;
71963;SDS011;59834;52.124;5.422;2022-08-18T16:58:42;2.80;;;0.98;;
71963;SDS011;59834;52.124;5.422;2022-08-18T17:01:27;2.03;;;0.73;;
71963;SDS011;59834;52.124;5.422;2022-08-18T17:04:16;1.92;;;0.80;;
71963;SDS011;59834;52.124;5.422;2022-08-18T17:06:46;2.47;;;0.60;;
71963;SDS011;59834;52.124;5.422;2022-08-18T17:09:13;2.35;;;0.80;;
71963;SDS011;59834;52.124;5.422;2022-08-18T17:11:40;2.55;;;0.90;;
71963;SDS011;59834;52.124;5.422;2022-08-18T17:14:17;3.75;;;0.80;;
71963;SDS011;59834;52.124;5.422;2022-08-18T17:16:49;1.70;;;0.40;;
71963;SDS011;59834;52.124;5.422;2022-08-18T17:19:20;3.23;;;0.90;;
71963;SDS011;59834;52.124;5.422;2022-08-18T17:21:49;4.28;;;0.90;;
71963;SDS011;59834;52.124;5.422;2022-08-18T17:24:16;2.78;;;0.75;;
71963;SDS011;59834;52.124;5.422;2022-08-18T17:27:14;2.75;;;1.40;;
71963;SDS011;59834;52.124;5.422;2022-08-18T17:30:04;0.98;;;0.55;;
71963;SDS011;59834;52.124;5.422;2022-08-18T17:32:41;1.30;;;0.70;;
71963;SDS011;59834;52.124;5.422;2022-08-18T17:35:17;2.28;;;0.80;;
71963;SDS011;59834;52.124;5.422;2022-08-18T17:37:59;1.98;;;0.50;;
71963;SDS011;59834;52.124;5.422;2022-08-18T17:40:41;9.43;;;1.27;;
71963;SDS011;59834;52.124;5.422;2022-08-18T17:43:11;1.00;;;0.50;;
71963;SDS011;59834;52.124;5.422;2022-08-18T17:45:42;1.77;;;0.63;;
71963;SDS011;59834;52.124;5.422;2022-08-18T17:50:40;2.13;;;0.88;;
71963;SDS011;59834;52.124;5.422;2022-08-18T17:53:31;1.67;;;0.60;;
71963;SDS011;59834;52.124;5.422;2022-08-18T17:56:06;1.23;;;0.70;;
71963;SDS011;59834;52.124;5.422;2022-08-18T17:58:39;2.07;;;0.67;;
71963;SDS011;59834;52.124;5.422;2022-08-18T18:01:11;1.55;;;0.70;;
71963;SDS011;59834;52.124;5.422;2022-08-18T18:03:38;2.28;;;0.77;;
71963;SDS011;59834;52.124;5.422;2022-08-18T18:09:02;2.22;;;0.90;;
71963;SDS011;59834;52.124;5.422;2022-08-18T18:11:32;1.53;;;0.50;;
71963;SDS011;59834;52.124;5.422;2022-08-18T18:17:04;1.35;;;0.70;;
71963;SDS011;59834;52.124;5.422;2022-08-18T18:19:44;1.80;;;0.70;;
71963;SDS011;59834;52.124;5.422;2022-08-18T18:22:19;1.65;;;0.68;;
71963;SDS011;59834;52.124;5.422;2022-08-18T18:24:57;4.50;;;0.50;;
71963;SDS011;59834;52.124;5.422;2022-08-18T18:32:34;1.65;;;0.60;;
71963;SDS011;59834;52.124;5.422;2022-08-18T18:47:38;1.55;;;0.90;;
71963;SDS011;59834;52.124;5.422;2022-08-18T18:55:57;1.67;;;0.52;;
71963;SDS011;59834;52.124;5.422;2022-08-18T19:15:14;2.13;;;1.00;;
71963;SDS011;59834;52.124;5.422;2022-08-18T19:18:39;2.70;;;1.50;;
71963;SDS011;59834;52.124;5.422;2022-08-18T19:21:33;2.95;;;1.00;;
71963;SDS011;59834;52.124;5.422;2022-08-18T19:24:24;4.43;;;1.37;;
71963;SDS011;59834;52.124;5.422;2022-08-18T19:27:18;1.95;;;0.90;;
71963;SDS011;59834;52.124;5.422;2022-08-18T19:33:55;3.92;;;1.20;;
71963;SDS011;59834;52.124;5.422;2022-08-18T19:42:43;2.10;;;1.15;;
71963;SDS011;59834;52.124;5.422;2022-08-18T19:45:48;3.83;;;1.10;;
71963;SDS011;59834;52.124;5.422;2022-08-18T19:48:48;4.57;;;1.10;;
71963;SDS011;59834;52.124;5.422;2022-08-18T19:51:52;1.95;;;1.10;;
71963;SDS011;59834;52.124;5.422;2022-08-18T19:54:30;2.03;;;1.17;;
71963;SDS011;59834;52.124;5.422;2022-08-18T20:00:36;4.57;;;1.40;;
71963;SDS011;59834;52.124;5.422;2022-08-18T20:03:15;1.77;;;1.02;;
71963;SDS011;59834;52.124;5.422;2022-08-18T20:15:18;4.28;;;1.05;;
71963;SDS011;59834;52.124;5.422;2022-08-18T20:20:25;3.00;;;1.10;;
71963;SDS011;59834;52.124;5.422;2022-08-18T20:22:55;1.57;;;1.33;;
71963;SDS011;59834;52.124;5.422;2022-08-18T20:25:37;3.10;;;1.20;;
71963;SDS011;59834;52.124;5.422;2022-08-18T20:28:18;2.72;;;1.55;;
71963;SDS011;59834;52.124;5.422;2022-08-18T20:31:05;3.97;;;2.50;;
71963;SDS011;59834;52.124;5.422;2022-08-18T20:33:39;3.92;;;1.27;;
71963;SDS011;59834;52.124;5.422;2022-08-18T20:36:33;2.93;;;1.73;;
71963;SDS011;59834;52.124;5.422;2022-08-18T20:45:45;4.80;;;2.15;;
71963;SDS011;59834;52.124;5.422;2022-08-18T20:51:38;2.10;;;1.33;;
71963;SDS011;59834;52.124;5.422;2022-08-18T20:54:24;2.08;;;1.30;;
71963;SDS011;59834;52.124;5.422;2022-08-18T20:57:23;2.00;;;1.10;;
71963;SDS011;59834;52.124;5.422;2022-08-18T21:00:11;2.30;;;1.60;;
71963;SDS011;59834;52.124;5.422;2022-08-18T21:02:53;2.35;;;1.58;;
71963;SDS011;59834;52.124;5.422;2022-08-18T21:05:44;3.30;;;1.33;;
71963;SDS011;59834;52.124;5.422;2022-08-18T21:08:23;2.95;;;1.92;;
71963;SDS011;59834;52.124;5.422;2022-08-18T21:10:53;3.00;;;2.05;;
71963;SDS011;59834;52.124;5.422;2022-08-18T21:19:24;4.93;;;1.93;;
71963;SDS011;59834;52.124;5.422;2022-08-18T21:25:23;3.78;;;2.45;;
71963;SDS011;59834;52.124;5.422;2022-08-18T21:28:18;4.68;;;1.67;;
71963;SDS011;59834;52.124;5.422;2022-08-18T21:34:28;2.23;;;1.70;;
71963;SDS011;59834;52.124;5.422;2022-08-18T21:36:56;3.17;;;2.13;;
71963;SDS011;59834;52.124;5.422;2022-08-18T21:39:28;3.25;;;1.90;;
71963;SDS011;59834;52.124;5.422;2022-08-18T21:41:58;2.78;;;2.08;;
71963;SDS011;59834;52.124;5.422;2022-08-18T21:50:36;3.35;;;2.60;;
71963;SDS011;59834;52.124;5.422;2022-08-18T22:02:46;6.17;;;2.57;;
71963;SDS011;59834;52.124;5.422;2022-08-18T22:05:27;2.90;;;2.50;;
71963;SDS011;59834;52.124;5.422;2022-08-18T22:08:22;2.83;;;2.17;;
71963;SDS011;59834;52.124;5.422;2022-08-18T22:11:18;3.90;;;2.40;;
71963;SDS011;59834;52.124;5.422;2022-08-18T22:14:40;4.30;;;2.38;;
71963;SDS011;59834;52.124;5.422;2022-08-18T22:20:37;4.05;;;2.00;;
71963;SDS011;59834;52.124;5.422;2022-08-18T22:26:39;3.22;;;2.15;;
71963;SDS011;59834;52.124;5.422;2022-08-18T22:33:04;5.00;;;2.10;;
71963;SDS011;59834;52.124;5.422;2022-08-18T22:35:51;3.78;;;2.20;;
71963;SDS011;59834;52.124;5.422;2022-08-18T22:38:27;4.35;;;2.50;;
71963;SDS011;59834;52.124;5.422;2022-08-18T22:41:56;3.53;;;2.90;;
71963;SDS011;59834;52.124;5.422;2022-08-18T22:44:57;3.22;;;2.92;;
71963;SDS011;59834;52.124;5.422;2022-08-18T22:47:54;4.83;;;3.87;;
71963;SDS011;59834;52.124;5.422;2022-08-18T22:50:51;5.05;;;3.97;;
71963;SDS011;59834;52.124;5.422;2022-08-18T22:53:19;4.28;;;3.88;;
71963;SDS011;59834;52.124;5.422;2022-08-18T22:55:52;4.95;;;2.78;;
71963;SDS011;59834;52.124;5.422;2022-08-18T22:58:24;3.10;;;2.72;;
71963;SDS011;59834;52.124;5.422;2022-08-18T23:01:24;3.53;;;3.20;;
71963;SDS011;59834;52.124;5.422;2022-08-18T23:04:02;5.40;;;3.13;;
71963;SDS011;59834;52.124;5.422;2022-08-18T23:06:49;3.53;;;2.85;;
71963;SDS011;59834;52.124;5.422;2022-08-18T23:09:41;4.55;;;2.50;;
71963;SDS011;59834;52.124;5.422;2022-08-18T23:12:21;3.08;;;2.78;;
71963;SDS011;59834;52.124;5.422;2022-08-18T23:18:47;3.55;;;2.55;;
71963;SDS011;59834;52.124;5.422;2022-08-18T23:21:42;2.70;;;2.33;;
71963;SDS011;59834;52.124;5.422;2022-08-18T23:24:10;4.20;;;2.42;;
71963;SDS011;59834;52.124;5.422;2022-08-18T23:27:05;2.88;;;2.55;;
71963;SDS011;59834;52.124;5.422;2022-08-18T23:29:51;4.10;;;2.70;;
71963;SDS011;59834;52.124;5.422;2022-08-18T23:32:31;5.05;;;2.78;;
71963;SDS011;59834;52.124;5.422;2022-08-18T23:35:00;2.97;;;2.65;;
71963;SDS011;59834;52.124;5.422;2022-08-18T23:37:50;2.42;;;2.22;;
71963;SDS011;59834;52.124;5.422;2022-08-18T23:40:25;6.95;;;2.95;;
71963;SDS011;59834;52.124;5.422;2022-08-18T23:42:58;3.20;;;2.90;;
71963;SDS011;59834;52.124;5.422;2022-08-18T23:45:37;3.50;;;2.78;;
71963;SDS011;59834;52.124;5.422;2022-08-18T23:48:24;3.38;;;2.40;;
71963;SDS011;59834;52.124;5.422;2022-08-18T23:50:55;2.00;;;1.63;;
71963;SDS011;59834;52.124;5.422;2022-08-18T23:53:44;2.22;;;1.60;;
71963;SDS011;59834;52.124;5.422;2022-08-18T23:59:28;2.10;;;1.23;;
